Time;durP1;ratioP1;P1;durP2;ratioP2;P2;SDS_P1;SDS_P2;PMS_P1;PMS_P2;Temp;Humidity;BMP_temperature;BMP_pressure;BME280_temperature;BME280_humidity;BME280_pressure;Samples;Min_cycle;Max_cycle;Signal;HPM_P1;HPM_P2
2023/01/22 00:02:03;;;;;;;54.55;27.50;;;;;;;;;;4994002;28;20117;-72
2023/01/22 00:04:29;;;;;;;48.63;22.95;;;;;;;;;;4993860;28;20391;-72
2023/01/22 00:06:56;;;;;;;32.75;16.85;;;;;;;;;;4993747;28;20042;-73
2023/01/22 00:09:22;;;;;;;37.58;16.77;;;;;;;;;;4993212;28;20525;-72
2023/01/22 00:11:49;;;;;;;30.85;17.10;;;;;;;;;;4992234;28;20049;-72
2023/01/22 00:14:15;;;;;;;36.17;17.45;;;;;;;;;;4993472;28;20145;-73
2023/01/22 00:16:41;;;;;;;29.83;14.40;;;;;;;;;;4993646;28;20422;-72
2023/01/22 00:19:07;;;;;;;27.67;14.68;;;;;;;;;;4993229;28;20034;-72
2023/01/22 00:21:33;;;;;;;33.38;14.05;;;;;;;;;;4995138;28;20045;-72
2023/01/22 00:23:59;;;;;;;25.35;11.48;;;;;;;;;;4973324;28;20396;-72
2023/01/22 00:26:25;;;;;;;41.58;11.55;;;;;;;;;;4973678;28;20055;-72
2023/01/22 00:28:51;;;;;;;38.85;11.82;;;;;;;;;;4973854;28;20069;-72
2023/01/22 00:31:17;;;;;;;27.65;10.80;;;;;;;;;;4973467;28;20053;-72
2023/01/22 00:33:44;;;;;;;22.67;9.75;;;;;;;;;;4988802;28;20180;-72
2023/01/22 00:36:13;;;;;;;24.00;9.82;;;;;;;;;;4988768;28;20086;-72
2023/01/22 00:38:39;;;;;;;18.70;8.73;;;;;;;;;;4988792;28;20053;-72
2023/01/22 00:41:07;;;;;;;22.35;9.30;;;;;;;;;;4988111;28;20122;-73
2023/01/22 00:43:34;;;;;;;19.02;8.63;;;;;;;;;;4973832;28;20147;-73
2023/01/22 00:46:00;;;;;;;20.67;8.45;;;;;;;;;;4988606;28;20050;-73
2023/01/22 00:48:27;;;;;;;21.40;9.73;;;;;;;;;;4973673;28;20041;-73
2023/01/22 00:50:52;;;;;;;17.42;8.45;;;;;;;;;;4972947;28;20086;-72
2023/01/22 00:53:18;;;;;;;18.73;9.00;;;;;;;;;;4988659;28;20027;-74
2023/01/22 00:55:55;;;;;;;20.63;9.55;;;;;;;;;;4988179;28;20049;-71
2023/01/22 00:58:21;;;;;;;19.98;8.73;;;;;;;;;;4988339;28;20034;-73
2023/01/22 01:00:48;;;;;;;15.02;8.10;;;;;;;;;;4987731;28;20030;-72
2023/01/22 01:03:29;;;;;;;15.13;8.00;;;;;;;;;;4972091;28;20435;-72
2023/01/22 01:06:07;;;;;;;16.55;8.38;;;;;;;;;;4988294;28;20035;-72
2023/01/22 01:08:36;;;;;;;22.38;8.65;;;;;;;;;;4987987;28;20042;-73
2023/01/22 01:11:05;;;;;;;21.23;9.23;;;;;;;;;;4972722;28;20027;-73
2023/01/22 01:13:36;;;;;;;23.58;9.50;;;;;;;;;;4973764;28;20027;-73
2023/01/22 01:16:10;;;;;;;16.45;7.72;;;;;;;;;;4973273;28;20405;-73
2023/01/22 01:18:36;;;;;;;17.75;7.80;;;;;;;;;;4973110;28;20377;-72
2023/01/22 01:21:03;;;;;;;14.00;8.25;;;;;;;;;;4973094;28;20041;-73
2023/01/22 01:23:29;;;;;;;15.32;8.80;;;;;;;;;;4973221;28;20034;-73
2023/01/22 01:25:55;;;;;;;17.58;9.15;;;;;;;;;;4988190;28;20041;-72
2023/01/22 01:28:21;;;;;;;18.20;9.30;;;;;;;;;;4971782;28;20571;-73
2023/01/22 01:30:47;;;;;;;18.45;9.32;;;;;;;;;;4987862;28;20023;-73
2023/01/22 01:33:13;;;;;;;25.08;8.80;;;;;;;;;;4987900;28;20489;-73
2023/01/22 01:35:39;;;;;;;16.65;8.60;;;;;;;;;;4975451;28;20062;-73
2023/01/22 01:38:05;;;;;;;19.00;8.93;;;;;;;;;;4992094;28;20129;-73
2023/01/22 01:40:31;;;;;;;17.95;8.27;;;;;;;;;;4976633;28;20101;-73
2023/01/22 01:42:57;;;;;;;13.73;7.93;;;;;;;;;;4974885;28;20443;-73
2023/01/22 01:45:31;;;;;;;15.68;7.97;;;;;;;;;;4987172;28;20035;-73
2023/01/22 01:48:24;;;;;;;15.55;7.68;;;;;;;;;;4989711;28;20133;-73
2023/01/22 01:51:02;;;;;;;19.98;9.15;;;;;;;;;;4976436;28;20374;-71
2023/01/22 01:53:28;;;;;;;21.85;9.23;;;;;;;;;;4975737;28;20045;-72
2023/01/22 01:55:56;;;;;;;18.05;9.05;;;;;;;;;;4972679;28;20030;-73
2023/01/22 01:58:24;;;;;;;18.77;9.63;;;;;;;;;;4990668;28;20045;-73
2023/01/22 02:00:54;;;;;;;17.85;8.38;;;;;;;;;;4987158;28;20050;-73
2023/01/22 02:03:21;;;;;;;17.35;9.30;;;;;;;;;;4957275;28;20046;-72
2023/01/22 02:05:46;;;;;;;15.70;8.80;;;;;;;;;;4956665;28;20020;-73
2023/01/22 02:08:13;;;;;;;16.65;9.18;;;;;;;;;;4971491;28;20093;-73
2023/01/22 02:10:39;;;;;;;16.85;8.48;;;;;;;;;;4980291;28;20019;-73
2023/01/22 02:13:16;;;;;;;18.23;9.07;;;;;;;;;;4989524;28;20041;-73
2023/01/22 02:15:45;;;;;;;18.73;9.48;;;;;;;;;;4974709;28;20067;-73
2023/01/22 02:18:11;;;;;;;17.15;8.70;;;;;;;;;;4958492;28;20058;-73
2023/01/22 02:20:38;;;;;;;20.35;8.98;;;;;;;;;;4975085;28;20031;-72
2023/01/22 02:23:06;;;;;;;18.95;10.18;;;;;;;;;;4975532;28;20050;-73
2023/01/22 02:25:33;;;;;;;17.55;9.15;;;;;;;;;;4993257;28;20035;-73
2023/01/22 02:27:59;;;;;;;21.58;11.13;;;;;;;;;;4974833;28;20033;-73
2023/01/22 02:30:25;;;;;;;21.65;11.82;;;;;;;;;;4975316;28;20039;-73
2023/01/22 02:32:50;;;;;;;22.63;12.10;;;;;;;;;;4990667;28;20084;-73
2023/01/22 02:35:16;;;;;;;26.65;12.77;;;;;;;;;;4970088;28;20027;-72
2023/01/22 02:37:42;;;;;;;24.55;12.70;;;;;;;;;;4971044;28;20493;-73
2023/01/22 02:40:09;;;;;;;31.95;13.65;;;;;;;;;;4977180;28;20046;-73
2023/01/22 02:42:35;;;;;;;21.23;11.68;;;;;;;;;;4990603;28;20429;-72
2023/01/22 02:45:01;;;;;;;26.92;12.52;;;;;;;;;;4989869;28;20117;-73
2023/01/22 02:47:28;;;;;;;21.75;11.00;;;;;;;;;;4975099;28;20031;-72
2023/01/22 02:49:53;;;;;;;18.20;10.77;;;;;;;;;;4989991;28;20034;-73
2023/01/22 02:52:19;;;;;;;22.25;12.52;;;;;;;;;;4975367;28;20027;-72
2023/01/22 02:54:46;;;;;;;22.40;12.43;;;;;;;;;;4987210;28;20400;-72
2023/01/22 02:57:12;;;;;;;26.27;11.75;;;;;;;;;;4956169;28;20031;-72
2023/01/22 02:59:37;;;;;;;24.63;12.60;;;;;;;;;;4970372;28;20031;-72
2023/01/22 03:02:03;;;;;;;30.52;13.70;;;;;;;;;;4970677;28;20067;-72
2023/01/22 03:04:29;;;;;;;28.38;13.43;;;;;;;;;;4970585;28;20039;-72
2023/01/22 03:06:55;;;;;;;23.25;10.48;;;;;;;;;;4987702;28;20025;-72
2023/01/22 03:09:23;;;;;;;26.77;12.13;;;;;;;;;;4988798;28;20031;-73
2023/01/22 03:11:49;;;;;;;25.92;11.02;;;;;;;;;;4987469;28;20034;-72
2023/01/22 03:22:36;;;;;;;21.92;10.40;;;;;;;;;;4989693;28;20564;-72
2023/01/22 03:25:02;;;;;;;18.65;10.02;;;;;;;;;;4992058;28;20027;-72
2023/01/22 03:27:30;;;;;;;18.67;10.60;;;;;;;;;;4989558;28;20090;-72
2023/01/22 03:29:56;;;;;;;30.42;12.40;;;;;;;;;;4989118;28;20035;-73
2023/01/22 03:32:23;;;;;;;23.83;12.13;;;;;;;;;;4989245;28;20508;-73
2023/01/22 03:34:49;;;;;;;23.67;11.25;;;;;;;;;;4989528;28;20045;-72
2023/01/22 03:37:16;;;;;;;21.67;10.35;;;;;;;;;;4986270;28;20042;-72
2023/01/22 03:39:44;;;;;;;23.30;11.45;;;;;;;;;;4956900;28;20110;-71
2023/01/22 03:42:16;;;;;;;25.30;11.75;;;;;;;;;;4986181;28;20081;-73
2023/01/22 03:44:42;;;;;;;36.78;13.60;;;;;;;;;;4960107;28;20454;-71
2023/01/22 03:47:08;;;;;;;32.95;14.32;;;;;;;;;;4969553;28;20023;-72
2023/01/22 03:49:34;;;;;;;27.65;13.85;;;;;;;;;;4969937;28;20532;-72
2023/01/22 03:52:02;;;;;;;24.30;12.25;;;;;;;;;;4970216;28;20085;-72
2023/01/22 03:54:28;;;;;;;33.22;18.67;;;;;;;;;;4970188;28;20117;-72
2023/01/22 03:56:56;;;;;;;29.80;14.40;;;;;;;;;;4970004;28;20034;-72
2023/01/22 03:59:27;;;;;;;24.80;12.85;;;;;;;;;;4970152;28;20039;-72
2023/01/22 04:01:53;;;;;;;23.27;11.02;;;;;;;;;;4953947;29;20039;-72
2023/01/22 04:04:20;;;;;;;22.08;9.77;;;;;;;;;;4969982;28;20535;-72
2023/01/22 04:06:45;;;;;;;18.63;8.43;;;;;;;;;;4953868;28;20039;-72
2023/01/22 04:09:12;;;;;;;15.95;7.93;;;;;;;;;;4973285;28;20488;-73
2023/01/22 04:11:44;;;;;;;20.60;8.02;;;;;;;;;;4985785;28;20087;-73
2023/01/22 04:14:11;;;;;;;15.57;8.45;;;;;;;;;;4985161;28;20038;-72
2023/01/22 04:16:41;;;;;;;12.02;7.43;;;;;;;;;;4988946;28;20050;-71
2023/01/22 04:19:22;;;;;;;17.20;8.07;;;;;;;;;;4965936;28;20031;-72
2023/01/22 04:21:51;;;;;;;18.50;8.82;;;;;;;;;;4974067;28;20085;-72
2023/01/22 04:24:18;;;;;;;17.80;8.77;;;;;;;;;;4988581;28;20102;-72
2023/01/22 04:26:45;;;;;;;16.92;9.32;;;;;;;;;;4985629;28;20038;-72
2023/01/22 04:29:12;;;;;;;19.08;10.13;;;;;;;;;;4953334;29;20066;-72
2023/01/22 04:31:38;;;;;;;16.30;9.07;;;;;;;;;;4969611;28;20042;-72
2023/01/22 04:34:41;;;;;;;16.35;8.00;;;;;;;;;;4982703;28;20085;-71
2023/01/22 04:37:17;;;;;;;16.48;8.68;;;;;;;;;;4972339;28;20037;-73
2023/01/22 04:39:43;;;;;;;11.95;7.45;;;;;;;;;;4972402;28;20543;-72
2023/01/22 04:42:10;;;;;;;16.50;7.80;;;;;;;;;;4972457;28;20031;-73
2023/01/22 04:44:36;;;;;;;14.13;7.40;;;;;;;;;;4988569;28;20097;-72
2023/01/22 04:47:01;;;;;;;14.93;7.13;;;;;;;;;;4988337;28;20472;-71
2023/01/22 04:49:27;;;;;;;14.25;7.53;;;;;;;;;;4988517;28;20035;-71
2023/01/22 04:51:53;;;;;;;16.30;7.40;;;;;;;;;;4988600;28;20544;-73
2023/01/22 04:54:19;;;;;;;12.55;7.43;;;;;;;;;;4972491;28;20130;-73
2023/01/22 04:56:45;;;;;;;15.43;7.18;;;;;;;;;;4985342;28;20162;-72
2023/01/22 04:59:12;;;;;;;20.98;7.60;;;;;;;;;;4976835;28;20055;-73
2023/01/22 05:01:38;;;;;;;20.92;11.20;;;;;;;;;;4968892;28;20087;-73
2023/01/22 05:04:04;;;;;;;13.02;8.13;;;;;;;;;;4969035;28;20122;-73
2023/01/22 05:06:33;;;;;;;14.27;8.23;;;;;;;;;;4968979;28;20081;-72
2023/01/22 05:08:59;;;;;;;17.55;8.82;;;;;;;;;;4968459;28;20031;-72
2023/01/22 05:11:28;;;;;;;13.40;7.90;;;;;;;;;;4968933;28;20034;-72
2023/01/22 05:13:59;;;;;;;17.20;8.07;;;;;;;;;;4968643;28;20386;-72
2023/01/22 05:16:25;;;;;;;16.90;8.13;;;;;;;;;;4968729;28;20043;-72
2023/01/22 05:18:51;;;;;;;22.05;8.48;;;;;;;;;;4968570;28;20523;-72
2023/01/22 05:21:17;;;;;;;12.70;7.32;;;;;;;;;;4952668;29;20129;-72
2023/01/22 05:23:43;;;;;;;16.83;8.13;;;;;;;;;;4968904;28;20023;-72
2023/01/22 05:26:09;;;;;;;16.02;8.40;;;;;;;;;;4968556;28;20509;-73
2023/01/22 05:28:50;;;;;;;21.95;10.65;;;;;;;;;;4982409;28;20110;-71
2023/01/22 05:31:28;;;;;;;24.10;12.35;;;;;;;;;;4972587;28;20112;-72
2023/01/22 05:34:03;;;;;;;25.73;12.07;;;;;;;;;;4985720;28;20105;-72
2023/01/22 05:36:29;;;;;;;22.90;10.60;;;;;;;;;;4987826;28;20046;-72
2023/01/22 05:38:59;;;;;;;20.02;9.77;;;;;;;;;;4987871;28;20035;-71
2023/01/22 05:41:26;;;;;;;20.13;8.40;;;;;;;;;;4988152;28;20061;-72
2023/01/22 05:43:54;;;;;;;14.90;6.82;;;;;;;;;;4987958;28;20041;-72
2023/01/22 05:46:24;;;;;;;17.38;6.75;;;;;;;;;;4971792;28;20512;-72
2023/01/22 05:49:08;;;;;;;;;;;;;;;;;;4973470;28;20517;-73
2023/01/22 05:51:34;;;;;;;12.80;4.68;;;;;;;;;;4971887;28;19957;-72
2023/01/22 05:54:00;;;;;;;21.40;6.68;;;;;;;;;;4973175;28;20392;-73
2023/01/22 05:56:30;;;;;;;27.17;8.45;;;;;;;;;;4971769;28;20064;-73
2023/01/22 05:58:56;;;;;;;34.92;9.48;;;;;;;;;;4987774;28;20082;-73
2023/01/22 06:01:25;;;;;;;14.55;8.25;;;;;;;;;;4972224;28;20034;-74
2023/01/22 06:03:52;;;;;;;23.70;10.15;;;;;;;;;;4988588;28;20401;-78
2023/01/22 06:06:21;;;;;;;21.90;10.88;;;;;;;;;;4970274;28;20093;-76
2023/01/22 06:08:51;;;;;;;22.20;10.77;;;;;;;;;;4980488;28;20023;-75
2023/01/22 06:11:19;;;;;;;19.30;9.63;;;;;;;;;;4981799;28;20078;-76
2023/01/22 06:13:45;;;;;;;14.43;8.15;;;;;;;;;;4961684;28;20480;-77
2023/01/22 06:16:16;;;;;;;22.30;9.20;;;;;;;;;;4987575;28;20039;-76
2023/01/22 06:19:00;;;;;;;19.52;9.35;;;;;;;;;;4988307;28;20053;-77
2023/01/22 06:21:31;;;;;;;20.65;11.32;;;;;;;;;;4975579;28;20385;-76
2023/01/22 06:23:58;;;;;;;19.10;11.85;;;;;;;;;;4975201;28;20377;-75
2023/01/22 06:26:24;;;;;;;22.55;11.85;;;;;;;;;;4991253;28;20061;-75
2023/01/22 06:28:50;;;;;;;19.20;11.73;;;;;;;;;;4991352;28;20523;-76
2023/01/22 06:31:16;;;;;;;21.30;11.32;;;;;;;;;;4991288;28;20031;-75
2023/01/22 06:33:41;;;;;;;24.33;11.40;;;;;;;;;;4974008;28;20184;-75
2023/01/22 06:36:08;;;;;;;19.67;11.57;;;;;;;;;;4990700;28;20031;-75
2023/01/22 06:38:34;;;;;;;20.38;11.15;;;;;;;;;;4974640;28;20039;-77
2023/01/22 06:41:02;;;;;;;16.98;9.60;;;;;;;;;;4990999;28;20500;-76
2023/01/22 06:43:33;;;;;;;19.98;9.80;;;;;;;;;;4974278;28;20031;-75
2023/01/22 06:45:59;;;;;;;20.13;8.50;;;;;;;;;;4986189;28;20061;-74
2023/01/22 06:48:48;;;;;;;20.23;9.63;;;;;;;;;;4967659;28;20046;-75
2023/01/22 06:51:14;;;;;;;20.67;9.75;;;;;;;;;;4982183;28;20051;-75
2023/01/22 06:53:41;;;;;;;23.00;10.40;;;;;;;;;;4975429;28;20477;-75
2023/01/22 06:56:07;;;;;;;20.20;11.50;;;;;;;;;;4975348;28;20058;-75
2023/01/22 06:58:33;;;;;;;19.65;9.48;;;;;;;;;;4974344;28;20062;-75
2023/01/22 07:01:04;;;;;;;18.00;10.57;;;;;;;;;;4973419;28;20112;-74
2023/01/22 07:03:29;;;;;;;18.02;9.73;;;;;;;;;;4970646;28;20400;-74
2023/01/22 07:06:00;;;;;;;21.35;12.20;;;;;;;;;;4967204;28;20137;-75
2023/01/22 07:08:27;;;;;;;20.00;11.73;;;;;;;;;;4975448;28;20114;-76
2023/01/22 07:10:53;;;;;;;26.77;12.73;;;;;;;;;;4974269;28;20118;-76
2023/01/22 07:13:19;;;;;;;18.30;10.77;;;;;;;;;;4988572;28;20122;-76
2023/01/22 07:15:45;;;;;;;24.20;13.63;;;;;;;;;;4975797;28;20077;-75
2023/01/22 07:18:13;;;;;;;24.25;11.38;;;;;;;;;;4974906;28;20477;-76
2023/01/22 07:20:40;;;;;;;20.90;11.98;;;;;;;;;;4974109;28;20082;-75
2023/01/22 07:23:06;;;;;;;20.92;10.05;;;;;;;;;;4966724;28;20070;-76
2023/01/22 07:25:32;;;;;;;27.00;12.27;;;;;;;;;;4975130;28;20027;-75
2023/01/22 07:28:01;;;;;;;22.67;13.00;;;;;;;;;;4990156;28;20113;-75
2023/01/22 07:30:27;;;;;;;23.10;12.43;;;;;;;;;;4989076;28;20038;-76
2023/01/22 07:32:53;;;;;;;22.58;13.05;;;;;;;;;;4966897;28;20085;-74
2023/01/22 07:35:19;;;;;;;23.55;13.82;;;;;;;;;;4988519;28;20027;-74
2023/01/22 07:37:55;;;;;;;36.38;16.38;;;;;;;;;;4965913;28;20035;-74
2023/01/22 07:40:23;;;;;;;34.80;18.23;;;;;;;;;;4954943;28;20094;-74
2023/01/22 07:42:50;;;;;;;30.58;17.17;;;;;;;;;;4972428;28;20407;-74
2023/01/22 07:45:18;;;;;;;39.63;18.23;;;;;;;;;;4987138;28;20065;-73
2023/01/22 07:47:51;;;;;;;32.30;18.23;;;;;;;;;;4968478;28;20034;-73
2023/01/22 07:50:17;;;;;;;30.60;16.13;;;;;;;;;;4965880;28;20665;-74
2023/01/22 07:52:44;;;;;;;29.27;16.70;;;;;;;;;;4969097;28;20109;-74
2023/01/22 07:55:10;;;;;;;32.00;17.85;;;;;;;;;;4963234;28;20118;-74
2023/01/22 07:57:35;;;;;;;29.20;18.25;;;;;;;;;;4982209;28;20105;-74
2023/01/22 08:00:01;;;;;;;29.88;18.63;;;;;;;;;;4963192;28;20041;-73
2023/01/22 08:02:26;;;;;;;30.77;18.02;;;;;;;;;;4973835;28;20354;-75
2023/01/22 08:04:52;;;;;;;26.98;14.10;;;;;;;;;;4967790;28;20118;-75
2023/01/22 08:07:18;;;;;;;20.30;12.20;;;;;;;;;;4970495;28;20031;-76
2023/01/22 08:09:44;;;;;;;21.10;11.38;;;;;;;;;;4969040;28;20135;-76
2023/01/22 08:12:10;;;;;;;20.73;11.50;;;;;;;;;;4974765;28;20057;-76
2023/01/22 08:14:37;;;;;;;23.98;12.05;;;;;;;;;;4988651;28;20034;-74
2023/01/22 08:17:03;;;;;;;18.67;11.38;;;;;;;;;;4971787;28;20023;-77
2023/01/22 08:19:28;;;;;;;15.57;10.25;;;;;;;;;;4974064;28;20046;-76
2023/01/22 08:21:55;;;;;;;19.30;8.50;;;;;;;;;;4970663;28;20632;-76
2023/01/22 08:24:21;;;;;;;17.92;7.65;;;;;;;;;;4970679;28;20053;-75
2023/01/22 08:26:46;;;;;;;12.65;7.45;;;;;;;;;;4967127;28;20023;-73
2023/01/22 08:29:14;;;;;;;15.43;6.97;;;;;;;;;;4967755;28;20043;-77
2023/01/22 08:31:39;;;;;;;11.63;6.75;;;;;;;;;;4965453;28;20054;-77
2023/01/22 08:34:05;;;;;;;14.82;7.30;;;;;;;;;;4969957;28;20129;-77
2023/01/22 08:36:31;;;;;;;14.27;7.25;;;;;;;;;;4966733;28;20077;-75
2023/01/22 08:38:56;;;;;;;11.35;6.25;;;;;;;;;;4973486;28;20030;-75
2023/01/22 08:41:23;;;;;;;16.50;6.80;;;;;;;;;;4972424;28;20037;-76
2023/01/22 08:43:50;;;;;;;11.70;6.75;;;;;;;;;;4972311;28;20043;-76
2023/01/22 08:46:15;;;;;;;13.45;6.50;;;;;;;;;;4964926;28;20015;-74
2023/01/22 08:48:42;;;;;;;14.13;6.30;;;;;;;;;;4973309;28;20046;-75
2023/01/22 08:51:09;;;;;;;13.07;5.90;;;;;;;;;;4987488;28;20034;-77
2023/01/22 08:53:35;;;;;;;12.02;6.63;;;;;;;;;;4988217;28;20089;-77
2023/01/22 08:56:00;;;;;;;10.77;5.70;;;;;;;;;;4973059;28;20081;-76
2023/01/22 08:58:26;;;;;;;12.32;6.18;;;;;;;;;;4972134;28;20080;-75
2023/01/22 09:00:53;;;;;;;19.88;8.30;;;;;;;;;;4973368;28;20400;-76
2023/01/22 09:03:20;;;;;;;22.90;7.55;;;;;;;;;;4973658;28;20043;-76
2023/01/22 09:05:46;;;;;;;17.58;8.57;;;;;;;;;;4972040;28;20034;-75
2023/01/22 09:08:12;;;;;;;14.65;8.32;;;;;;;;;;4971012;28;20662;-75
2023/01/22 09:10:38;;;;;;;22.40;8.60;;;;;;;;;;4970866;28;20134;-75
2023/01/22 09:13:04;;;;;;;16.40;7.72;;;;;;;;;;4971466;28;20039;-74
2023/01/22 09:15:29;;;;;;;14.85;8.63;;;;;;;;;;4972613;28;20033;-75
2023/01/22 09:17:56;;;;;;;22.70;10.18;;;;;;;;;;4972409;28;20050;-75
2023/01/22 09:20:22;;;;;;;15.40;8.35;;;;;;;;;;4972864;28;20560;-73
2023/01/22 09:22:48;;;;;;;18.23;8.90;;;;;;;;;;4972502;28;20133;-75
2023/01/22 09:25:14;;;;;;;13.48;8.00;;;;;;;;;;4972362;28;20089;-74
2023/01/22 09:27:40;;;;;;;14.80;6.97;;;;;;;;;;4975727;28;20126;-76
2023/01/22 09:30:08;;;;;;;17.02;7.15;;;;;;;;;;4995403;28;20043;-74
2023/01/22 09:32:34;;;;;;;18.55;6.60;;;;;;;;;;4974222;28;20030;-77
2023/01/22 09:35:00;;;;;;;14.10;5.68;;;;;;;;;;4961232;28;20073;-76
2023/01/22 09:37:26;;;;;;;9.88;5.97;;;;;;;;;;4953400;28;20063;-75
2023/01/22 09:39:52;;;;;;;12.93;5.50;;;;;;;;;;4964911;28;20035;-73
2023/01/22 09:42:26;;;;;;;13.43;5.25;;;;;;;;;;4962513;28;20137;-75
2023/01/22 09:44:56;;;;;;;9.90;4.78;;;;;;;;;;4961369;28;20497;-74
2023/01/22 09:47:41;;;;;;;19.45;5.22;;;;;;;;;;4961147;28;20489;-74
2023/01/22 09:50:23;;;;;;;8.10;4.82;;;;;;;;;;4971464;28;20081;-76
2023/01/22 09:52:52;;;;;;;10.40;5.10;;;;;;;;;;4964711;28;20488;-75
2023/01/22 09:55:21;;;;;;;11.95;6.47;;;;;;;;;;4966948;28;20102;-75
2023/01/22 09:57:49;;;;;;;13.23;6.03;;;;;;;;;;4964842;28;20126;-75
2023/01/22 10:00:26;;;;;;;10.57;5.20;;;;;;;;;;4965542;28;20046;-74
2023/01/22 10:02:59;;;;;;;11.43;4.93;;;;;;;;;;4969736;28;20098;-75
2023/01/22 10:05:38;;;;;;;11.25;5.65;;;;;;;;;;4957217;28;20362;-75
2023/01/22 10:08:11;;;;;;;19.38;6.43;;;;;;;;;;4972034;28;20035;-71
2023/01/22 10:10:38;;;;;;;11.40;5.55;;;;;;;;;;4957647;28;20081;-75
2023/01/22 10:13:42;;;;;;;10.60;5.53;;;;;;;;;;4986760;28;20062;-75
2023/01/22 10:16:09;;;;;;;9.13;4.95;;;;;;;;;;4956679;28;20520;-75
2023/01/22 10:19:04;;;;;;;11.82;4.97;;;;;;;;;;4956062;29;20074;-74
2023/01/22 10:21:40;;;;;;;9.70;4.88;;;;;;;;;;4971469;28;20050;-74
2023/01/22 10:24:08;;;;;;;12.23;5.70;;;;;;;;;;4975898;28;20109;-76
2023/01/22 10:26:46;;;;;;;11.95;4.65;;;;;;;;;;4970775;28;20082;-76
2023/01/22 10:29:20;;;;;;;11.02;5.22;;;;;;;;;;4972725;28;20080;-77
2023/01/22 10:31:50;;;;;;;12.55;6.90;;;;;;;;;;4966948;28;20097;-76
2023/01/22 10:34:29;;;;;;;11.43;5.50;;;;;;;;;;4989929;28;20081;-76
2023/01/22 10:36:58;;;;;;;8.63;5.07;;;;;;;;;;4990575;28;20039;-76
2023/01/22 10:39:23;;;;;;;16.40;5.85;;;;;;;;;;4990464;28;20619;-75
2023/01/22 10:41:49;;;;;;;15.68;5.90;;;;;;;;;;4975661;28;20137;-76
2023/01/22 10:44:19;;;;;;;12.77;5.40;;;;;;;;;;4975664;28;20109;-75
2023/01/22 10:46:47;;;;;;;12.48;4.97;;;;;;;;;;4974408;28;20547;-76
2023/01/22 10:49:15;;;;;;;10.45;5.57;;;;;;;;;;4990166;28;20042;-76
2023/01/22 10:51:45;;;;;;;8.95;4.50;;;;;;;;;;4975155;28;20038;-76
2023/01/22 10:54:21;;;;;;;6.82;3.72;;;;;;;;;;4989795;28;20062;-76
2023/01/22 10:56:47;;;;;;;9.60;4.45;;;;;;;;;;4989157;28;20038;-77
2023/01/22 10:59:26;;;;;;;14.52;4.13;;;;;;;;;;4973189;28;20042;-75
2023/01/22 11:01:59;;;;;;;9.25;3.65;;;;;;;;;;4974699;28;20043;-76
2023/01/22 11:04:31;;;;;;;9.75;4.22;;;;;;;;;;4975571;28;20454;-76
2023/01/22 11:07:07;;;;;;;22.65;4.40;;;;;;;;;;4973980;28;20030;-77
2023/01/22 11:09:43;;;;;;;11.23;3.30;;;;;;;;;;4990357;28;20038;-76
2023/01/22 11:12:26;;;;;;;10.65;2.85;;;;;;;;;;4975455;28;20035;-75
2023/01/22 11:15:05;;;;;;;10.65;2.45;;;;;;;;;;4975424;28;20117;-75
2023/01/22 11:17:41;;;;;;;5.55;2.45;;;;;;;;;;4975226;28;20178;-76
2023/01/22 11:20:18;;;;;;;6.50;2.25;;;;;;;;;;4975623;28;20121;-77
2023/01/22 11:22:50;;;;;;;8.57;3.85;;;;;;;;;;4975712;28;20054;-76
2023/01/22 11:25:16;;;;;;;8.73;4.25;;;;;;;;;;4990514;28;20031;-76
2023/01/22 11:28:06;;;;;;;11.13;4.63;;;;;;;;;;4976746;28;20498;-75
2023/01/22 11:31:01;;;;;;;18.85;7.53;;;;;;;;;;4991074;28;20042;-77
2023/01/22 11:33:42;;;;;;;13.65;5.90;;;;;;;;;;4974113;28;20075;-76
2023/01/22 11:36:32;;;;;;;14.02;4.60;;;;;;;;;;4974848;28;20034;-76
2023/01/22 11:39:16;;;;;;;7.68;3.42;;;;;;;;;;4988462;28;20053;-77
2023/01/22 11:42:20;;;;;;;7.10;2.63;;;;;;;;;;4989994;28;20031;-76
2023/01/22 11:44:49;;;;;;;6.18;2.70;;;;;;;;;;4972095;28;20497;-77
2023/01/22 11:47:42;;;;;;;6.57;2.60;;;;;;;;;;4990115;28;20413;-77
2023/01/22 11:50:19;;;;;;;3.95;1.85;;;;;;;;;;4989710;28;20035;-76
2023/01/22 11:52:52;;;;;;;6.95;2.40;;;;;;;;;;4974859;28;20061;-76
2023/01/22 11:55:38;;;;;;;;;;;;;;;;;;4975299;28;20051;-76
2023/01/22 11:58:32;;;;;;;4.68;1.90;;;;;;;;;;4974368;28;19922;-76
2023/01/22 12:01:23;;;;;;;8.63;4.03;;;;;;;;;;4974880;28;20045;-76
2023/01/22 12:03:58;;;;;;;4.03;1.60;;;;;;;;;;4974563;28;20039;-75
2023/01/22 12:06:33;;;;;;;8.00;4.80;;;;;;;;;;4974680;28;20034;-77
2023/01/22 12:09:25;;;;;;;4.82;1.80;;;;;;;;;;4990204;28;20035;-75
2023/01/22 12:12:11;;;;;;;2.80;1.30;;;;;;;;;;4974483;28;20042;-76
2023/01/22 12:14:55;;;;;;;5.03;1.63;;;;;;;;;;4974531;28;20030;-77
2023/01/22 12:17:21;;;;;;;;;;;;;;;;;;4974494;28;20129;-76
2023/01/22 12:20:05;;;;;;;10.80;4.40;;;;;;;;;;4974021;28;20004;-76
2023/01/22 12:23:05;;;;;;;7.65;3.53;;;;;;;;;;4972805;28;20404;-77
2023/01/22 12:25:45;;;;;;;8.13;2.95;;;;;;;;;;4969152;28;20413;-77
2023/01/22 12:28:52;;;;;;;5.47;1.80;;;;;;;;;;4972698;28;20066;-77
2023/01/22 12:31:37;;;;;;;7.13;3.35;;;;;;;;;;4973813;28;20087;-76
2023/01/22 12:34:09;;;;;;;5.95;2.10;;;;;;;;;;4973962;28;20046;-77
2023/01/22 12:36:35;;;;;;;3.58;1.75;;;;;;;;;;4988834;28;20046;-75
2023/01/22 12:39:25;;;;;;;7.07;3.35;;;;;;;;;;4973781;28;20019;-76
2023/01/22 12:42:05;;;;;;;15.50;8.45;;;;;;;;;;4973746;28;20034;-77
2023/01/22 12:44:39;;;;;;;9.45;5.32;;;;;;;;;;4974317;28;20049;-76
2023/01/22 12:48:06;;;;;;;9.60;3.90;;;;;;;;;;4974533;28;20151;-77
2023/01/22 12:50:32;;;;;;;6.93;2.58;;;;;;;;;;4932160;29;20446;-77
2023/01/22 12:53:02;;;;;;;6.20;2.78;;;;;;;;;;4980331;28;20039;-78
2023/01/22 12:55:31;;;;;;;4.43;2.40;;;;;;;;;;4966038;28;20045;-76
2023/01/22 12:57:57;;;;;;;7.95;2.53;;;;;;;;;;4972064;28;20401;-77
2023/01/22 13:00:30;;;;;;;7.72;2.53;;;;;;;;;;4971901;28;20092;-77
2023/01/22 13:02:57;;;;;;;6.18;2.97;;;;;;;;;;4965746;28;20054;-76
2023/01/22 13:05:25;;;;;;;7.40;3.63;;;;;;;;;;4955290;28;20054;-76
2023/01/22 13:08:34;;;;;;;12.82;5.82;;;;;;;;;;4962087;28;20043;-74
2023/01/22 13:11:03;;;;;;;16.05;9.27;;;;;;;;;;4974150;28;20049;-75
2023/01/22 13:13:31;;;;;;;166.32;52.60;;;;;;;;;;4969401;28;20091;-76
2023/01/22 13:16:23;;;;;;;54.40;22.75;;;;;;;;;;4970001;28;20035;-75
2023/01/22 13:18:54;;;;;;;30.20;14.15;;;;;;;;;;4974130;28;20035;-75
2023/01/22 13:21:29;;;;;;;6.28;2.35;;;;;;;;;;4973795;28;20107;-77
2023/01/22 13:24:19;;;;;;;7.80;2.40;;;;;;;;;;4976431;28;20089;-77
2023/01/22 13:26:50;;;;;;;5.57;1.95;;;;;;;;;;4990439;28;20062;-75
2023/01/22 13:29:26;;;;;;;4.88;1.90;;;;;;;;;;4987700;28;20038;-76
2023/01/22 13:31:57;;;;;;;7.82;1.77;;;;;;;;;;4973588;28;20406;-74
2023/01/22 13:34:26;;;;;;;5.15;1.30;;;;;;;;;;4979419;28;20035;-76
2023/01/22 13:36:52;;;;;;;6.07;1.15;;;;;;;;;;4962199;28;20114;-75
2023/01/22 13:39:25;;;;;;;5.57;1.40;;;;;;;;;;4955492;28;20043;-74
2023/01/22 13:41:53;;;;;;;3.65;1.20;;;;;;;;;;4973120;28;20061;-77
2023/01/22 13:44:22;;;;;;;4.57;2.00;;;;;;;;;;4971061;28;20035;-75
2023/01/22 13:46:50;;;;;;;3.45;1.50;;;;;;;;;;4972771;28;20031;-75
2023/01/22 13:49:36;;;;;;;6.18;1.73;;;;;;;;;;4972207;28;20106;-74
2023/01/22 13:52:05;;;;;;;2.67;1.17;;;;;;;;;;4960612;28;20469;-73
2023/01/22 13:54:34;;;;;;;2.53;1.00;;;;;;;;;;4953359;28;20055;-72
2023/01/22 13:57:00;;;;;;;8.02;1.05;;;;;;;;;;4967103;28;20441;-74
2023/01/22 13:59:35;;;;;;;2.10;0.95;;;;;;;;;;4951786;29;20126;-75
2023/01/22 14:02:31;;;;;;;4.40;1.10;;;;;;;;;;4953353;28;20106;-76
2023/01/22 14:04:57;;;;;;;3.17;1.10;;;;;;;;;;4952585;29;20071;-74
2023/01/22 14:07:27;;;;;;;4.60;2.30;;;;;;;;;;4967822;28;20051;-74
2023/01/22 14:09:54;;;;;;;5.78;1.35;;;;;;;;;;4952961;28;20094;-75
2023/01/22 14:12:23;;;;;;;4.30;1.00;;;;;;;;;;4962950;28;20038;-74
2023/01/22 14:14:50;;;;;;;4.10;1.30;;;;;;;;;;4967037;28;20160;-74
2023/01/22 14:17:24;;;;;;;5.03;1.20;;;;;;;;;;4973426;28;20114;-75
2023/01/22 14:19:51;;;;;;;2.22;1.00;;;;;;;;;;4973462;28;20039;-73
2023/01/22 14:22:17;;;;;;;3.75;0.90;;;;;;;;;;4969482;28;20031;-74
2023/01/22 14:24:42;;;;;;;2.92;1.45;;;;;;;;;;4954472;28;20413;-73
2023/01/22 14:27:08;;;;;;;5.10;1.40;;;;;;;;;;4954823;28;20027;-74
2023/01/22 14:29:35;;;;;;;4.65;1.02;;;;;;;;;;4953185;28;20035;-73
2023/01/22 14:32:00;;;;;;;7.72;1.17;;;;;;;;;;4952866;28;20054;-74
2023/01/22 14:34:27;;;;;;;2.28;0.95;;;;;;;;;;4952302;28;20058;-74
2023/01/22 14:36:53;;;;;;;2.40;0.93;;;;;;;;;;4963448;28;20086;-74
2023/01/22 14:39:20;;;;;;;2.47;0.95;;;;;;;;;;4952824;28;20098;-72
2023/01/22 14:41:49;;;;;;;4.80;1.20;;;;;;;;;;4953417;28;20038;-73
2023/01/22 14:44:15;;;;;;;4.85;1.23;;;;;;;;;;4962550;28;20508;-74
2023/01/22 14:46:41;;;;;;;2.95;1.15;;;;;;;;;;4975272;28;20022;-76
2023/01/22 14:49:07;;;;;;;2.25;1.10;;;;;;;;;;4988509;28;20586;-74
2023/01/22 14:51:32;;;;;;;4.32;1.15;;;;;;;;;;4970879;28;20027;-72
2023/01/22 14:53:58;;;;;;;3.30;1.40;;;;;;;;;;4985898;28;20062;-76
2023/01/22 14:56:25;;;;;;;3.00;1.20;;;;;;;;;;4975463;28;20031;-76
2023/01/22 14:58:51;;;;;;;3.38;1.20;;;;;;;;;;4990648;28;20046;-75